createdAt,value
2022-12-26T00:01:52.929Z,89.20
2022-12-26T00:04:51.388Z,89.10
2022-12-26T00:07:12.857Z,89.10
2022-12-26T00:09:41.810Z,90.00
2022-12-26T00:12:10.775Z,89.10
2022-12-26T00:14:40.813Z,89.10
2022-12-26T00:17:09.903Z,89.20
2022-12-26T00:19:39.024Z,89.10
2022-12-26T00:22:08.792Z,89.10
2022-12-26T00:24:39.179Z,88.90
2022-12-26T00:27:08.298Z,88.90
2022-12-26T00:29:37.291Z,88.90
2022-12-26T00:32:06.448Z,88.90
2022-12-26T00:34:35.457Z,88.90
2022-12-26T00:37:04.478Z,88.80
2022-12-26T00:39:33.626Z,88.70
2022-12-26T00:42:04.116Z,88.70
2022-12-26T00:44:33.204Z,88.60
2022-12-26T00:47:02.287Z,88.50
2022-12-26T00:50:12.389Z,88.30
2022-12-26T00:52:20.348Z,88.30
2022-12-26T00:54:49.354Z,88.30
2022-12-26T00:57:19.765Z,88.20
2022-12-26T00:59:48.800Z,88.00
2022-12-26T01:02:31.773Z,88.90
2022-12-26T01:05:00.852Z,88.10
2022-12-26T01:07:29.826Z,88.00
2022-12-26T01:10:00.119Z,87.90
2022-12-26T01:12:30.703Z,87.90
2022-12-26T01:15:00.433Z,87.90
2022-12-26T01:17:30.070Z,87.90
2022-12-26T01:19:59.298Z,87.80
2022-12-26T01:22:28.999Z,87.80
2022-12-26T01:24:58.450Z,87.80
2022-12-26T01:27:27.918Z,87.70
2022-12-26T01:29:59.848Z,87.70
2022-12-26T01:32:28.930Z,87.70
2022-12-26T01:34:57.996Z,87.70
2022-12-26T01:37:27.363Z,87.50
2022-12-26T01:39:56.390Z,87.50
2022-12-26T01:42:26.852Z,87.60
2022-12-26T01:45:06.236Z,87.50
2022-12-26T01:47:44.629Z,87.60
2022-12-26T01:50:28.282Z,87.50
2022-12-26T01:53:01.129Z,87.50
2022-12-26T01:55:31.608Z,87.50
2022-12-26T01:58:07.005Z,87.50
2022-12-26T02:00:38.715Z,87.50
2022-12-26T02:03:28.371Z,87.40
2022-12-26T02:06:00.410Z,87.40
2022-12-26T02:08:31.965Z,87.30
2022-12-26T02:11:11.429Z,87.30
2022-12-26T02:13:41.275Z,87.20
2022-12-26T02:16:15.568Z,87.20
2022-12-26T02:18:44.662Z,87.10
2022-12-26T02:21:29.180Z,87.10
2022-12-26T02:24:30.371Z,87.00
2022-12-26T02:27:12.496Z,87.00
2022-12-26T02:30:39.902Z,87.00
2022-12-26T02:33:32.919Z,86.90
2022-12-26T02:36:25.463Z,86.80
2022-12-26T02:39:45.587Z,86.80
2022-12-26T02:42:07.830Z,86.80
2022-12-26T02:45:01.902Z,86.80
2022-12-26T02:47:38.093Z,86.80
2022-12-26T02:50:33.772Z,86.80
2022-12-26T02:53:28.785Z,86.70
2022-12-26T02:56:22.019Z,86.80
2022-12-26T02:59:14.179Z,86.70
2022-12-26T03:02:04.738Z,86.80
2022-12-26T03:04:56.050Z,86.80
2022-12-26T03:07:52.780Z,86.60
2022-12-26T03:10:43.266Z,86.50
2022-12-26T03:13:19.937Z,86.50
2022-12-26T03:16:11.317Z,86.30
2022-12-26T03:18:58.684Z,86.20
2022-12-26T03:21:35.149Z,86.20
2022-12-26T03:24:04.281Z,86.10
2022-12-26T03:26:41.818Z,86.00
2022-12-26T03:29:30.794Z,86.00
2022-12-26T03:32:00.898Z,85.80
2022-12-26T03:34:30.516Z,85.70
2022-12-26T03:37:47.812Z,85.70
2022-12-26T03:40:47.225Z,85.60
2022-12-26T03:43:44.212Z,85.60
2022-12-26T03:46:40.276Z,85.50
2022-12-26T03:49:30.536Z,85.50
2022-12-26T03:52:20.561Z,85.60
2022-12-26T03:55:14.889Z,85.50
2022-12-26T03:58:08.175Z,85.50
2022-12-26T04:00:57.185Z,85.50
2022-12-26T04:03:44.477Z,85.40
2022-12-26T04:06:37.143Z,85.40
2022-12-26T04:09:29.502Z,85.40
2022-12-26T04:12:19.890Z,85.40
2022-12-26T04:15:12.139Z,85.40
2022-12-26T04:18:04.342Z,85.40
2022-12-26T04:20:38.046Z,85.40
2022-12-26T04:23:29.590Z,85.40
2022-12-26T04:26:22.350Z,85.40
2022-12-26T04:29:10.513Z,85.40
2022-12-26T04:32:05.676Z,85.40
2022-12-26T04:35:03.774Z,85.40
2022-12-26T04:37:52.607Z,85.40
2022-12-26T04:40:42.845Z,85.30
2022-12-26T04:43:50.009Z,85.30
2022-12-26T04:46:24.021Z,85.30
2022-12-26T04:49:13.375Z,85.30
2022-12-26T04:51:42.399Z,85.30
2022-12-26T04:54:11.430Z,85.30
2022-12-26T04:56:40.625Z,85.30
2022-12-26T04:59:10.187Z,85.30
2022-12-26T05:01:58.149Z,85.30
2022-12-26T05:04:45.362Z,85.20
2022-12-26T05:07:36.253Z,85.30
2022-12-26T05:10:06.577Z,85.30
2022-12-26T05:12:35.807Z,85.30
2022-12-26T05:15:05.147Z,85.30
2022-12-26T05:17:52.613Z,85.30
2022-12-26T05:20:44.181Z,85.40
2022-12-26T05:23:37.214Z,85.30
2022-12-26T05:26:24.374Z,85.30
2022-12-26T05:28:58.003Z,85.40
2022-12-26T05:31:32.938Z,85.40
2022-12-26T05:34:07.882Z,85.40
2022-12-26T05:36:41.635Z,85.40
2022-12-26T05:39:11.329Z,85.40
2022-12-26T05:41:41.217Z,85.60
2022-12-26T05:44:11.344Z,85.70
2022-12-26T05:46:42.510Z,85.80
2022-12-26T05:49:12.830Z,85.80
2022-12-26T05:51:41.740Z,85.80
2022-12-26T05:54:10.741Z,85.60
2022-12-26T05:56:41.892Z,85.60
2022-12-26T05:59:14.851Z,85.50
2022-12-26T06:01:43.879Z,85.50
2022-12-26T06:04:14.921Z,85.50
2022-12-26T06:06:43.937Z,85.40
2022-12-26T06:09:12.973Z,85.40
2022-12-26T06:11:48.552Z,85.40
2022-12-26T06:14:18.485Z,85.60
2022-12-26T06:16:47.559Z,85.70
2022-12-26T06:19:18.172Z,85.70
2022-12-26T06:21:47.232Z,85.70
2022-12-26T06:24:16.363Z,85.80
2022-12-26T06:26:45.407Z,85.80
2022-12-26T06:29:14.401Z,85.70
2022-12-26T06:31:43.485Z,85.60
2022-12-26T06:34:13.561Z,85.60
2022-12-26T06:36:43.966Z,85.60
2022-12-26T06:39:13.056Z,85.60
2022-12-26T06:41:42.109Z,85.80
2022-12-26T06:44:16.243Z,85.80
2022-12-26T06:46:47.403Z,85.90
2022-12-26T06:49:16.523Z,85.90
2022-12-26T06:51:46.947Z,85.90
2022-12-26T06:54:15.960Z,86.00
2022-12-26T06:56:44.913Z,86.10
2022-12-26T06:59:13.925Z,87.00
2022-12-26T07:01:43.167Z,86.30
2022-12-26T07:04:14.363Z,86.20
2022-12-26T07:06:43.355Z,86.20
2022-12-26T07:09:16.869Z,86.30
2022-12-26T07:11:48.278Z,86.40
2022-12-26T07:14:17.536Z,86.20
2022-12-26T07:16:46.865Z,86.10
2022-12-26T07:19:16.911Z,86.00
2022-12-26T07:21:46.032Z,86.00
2022-12-26T07:24:18.635Z,86.00
2022-12-26T07:26:48.291Z,86.00
2022-12-26T07:29:17.912Z,85.80
2022-12-26T07:31:47.264Z,85.90
2022-12-26T07:34:16.637Z,85.90
2022-12-26T07:36:45.664Z,85.90
2022-12-26T07:39:17.137Z,86.00
2022-12-26T07:42:01.022Z,86.10
2022-12-26T07:44:32.500Z,86.10
2022-12-26T07:47:02.224Z,85.90
2022-12-26T07:49:31.199Z,85.90
2022-12-26T07:52:00.240Z,86.00
2022-12-26T07:54:32.317Z,86.10
2022-12-26T07:57:29.925Z,86.00
2022-12-26T07:59:53.405Z,85.90
2022-12-26T08:02:24.624Z,86.00
2022-12-26T08:04:53.823Z,86.00
2022-12-26T08:07:22.979Z,86.10
2022-12-26T08:09:53.537Z,86.10
2022-12-26T08:12:24.633Z,86.10
2022-12-26T08:14:53.913Z,86.00
2022-12-26T08:17:22.899Z,85.90
2022-12-26T08:19:51.947Z,85.90
2022-12-26T08:22:20.945Z,86.00
2022-12-26T08:24:49.946Z,86.00
2022-12-26T08:27:20.328Z,86.00
2022-12-26T08:29:49.449Z,86.00
2022-12-26T08:32:18.523Z,86.10
2022-12-26T08:34:47.619Z,86.10
2022-12-26T08:37:16.815Z,86.10
2022-12-26T08:39:46.115Z,86.10
2022-12-26T08:42:15.131Z,86.20
2022-12-26T08:44:45.909Z,86.20
2022-12-26T08:47:15.229Z,86.10
2022-12-26T08:49:44.432Z,86.10
2022-12-26T08:52:13.479Z,86.20
2022-12-26T08:54:42.444Z,86.20
2022-12-26T08:57:11.472Z,86.10
2022-12-26T08:59:40.739Z,86.20
2022-12-26T09:02:13.083Z,86.20
2022-12-26T09:04:42.176Z,86.20
2022-12-26T09:07:11.485Z,86.20
2022-12-26T09:09:40.610Z,86.10
2022-12-26T09:12:09.613Z,86.20
2022-12-26T09:14:38.623Z,86.20
2022-12-26T09:17:07.719Z,86.20
2022-12-26T09:19:38.286Z,86.20
2022-12-26T09:22:24.457Z,86.30
2022-12-26T09:24:55.633Z,86.30
2022-12-26T09:27:24.424Z,86.40
2022-12-26T09:29:53.301Z,86.50
2022-12-26T09:32:22.286Z,86.30
2022-12-26T09:34:52.656Z,86.30
2022-12-26T09:37:22.079Z,86.40
2022-12-26T09:39:51.047Z,86.40
2022-12-26T09:42:28.744Z,86.40
2022-12-26T09:45:06.463Z,86.50
2022-12-26T09:47:37.474Z,86.60
2022-12-26T09:50:32.487Z,86.50
2022-12-26T09:53:05.849Z,86.50
2022-12-26T09:55:43.602Z,86.50
2022-12-26T09:58:20.349Z,86.50
2022-12-26T10:00:54.867Z,86.60
2022-12-26T10:03:28.579Z,86.50
2022-12-26T10:06:11.825Z,86.30
2022-12-26T10:09:03.125Z,86.20
2022-12-26T10:11:43.405Z,86.00
2022-12-26T10:14:21.946Z,86.00
2022-12-26T10:16:57.946Z,85.80
2022-12-26T10:19:44.976Z,85.70
2022-12-26T10:22:50.236Z,86.40
2022-12-26T10:25:22.887Z,85.60
2022-12-26T10:27:53.098Z,85.40
2022-12-26T10:30:34.070Z,85.20
2022-12-26T10:33:08.270Z,85.00
2022-12-26T10:35:44.587Z,84.70
2022-12-26T10:38:25.800Z,84.50
2022-12-26T10:40:59.869Z,84.20
2022-12-26T10:43:32.665Z,84.10
2022-12-26T10:46:27.131Z,83.80
2022-12-26T10:48:56.643Z,83.70
2022-12-26T10:51:26.221Z,83.50
2022-12-26T10:53:56.918Z,83.40
2022-12-26T10:56:27.334Z,83.30
2022-12-26T10:59:02.963Z,83.20
2022-12-26T11:01:36.135Z,83.10
2022-12-26T11:04:07.108Z,82.90
2022-12-26T11:06:40.816Z,83.70
2022-12-26T11:09:35.969Z,82.70
2022-12-26T11:12:05.748Z,82.70
2022-12-26T11:14:39.071Z,82.80
2022-12-26T11:17:12.796Z,82.80
2022-12-26T11:19:44.609Z,82.70
2022-12-26T11:22:27.123Z,82.50
2022-12-26T11:25:16.866Z,82.60
2022-12-26T11:27:48.401Z,82.60
2022-12-26T11:30:24.478Z,82.70
2022-12-26T11:33:13.729Z,82.60
2022-12-26T11:35:56.100Z,82.60
2022-12-26T11:38:44.773Z,82.80
2022-12-26T11:41:36.502Z,82.90
2022-12-26T11:44:14.241Z,83.60
2022-12-26T11:46:46.662Z,82.80
2022-12-26T11:49:21.570Z,82.80
2022-12-26T11:51:58.455Z,82.80
2022-12-26T11:54:35.703Z,82.70
2022-12-26T11:57:20.407Z,82.70
2022-12-26T11:59:50.657Z,82.80
2022-12-26T12:02:28.594Z,82.90
2022-12-26T12:05:02.709Z,82.90
2022-12-26T12:07:57.563Z,82.80
2022-12-26T12:10:52.412Z,82.80
2022-12-26T12:13:35.702Z,82.70
2022-12-26T12:16:12.094Z,82.70
2022-12-26T12:18:59.004Z,82.60
2022-12-26T12:21:40.420Z,82.50
2022-12-26T12:24:32.374Z,82.40
2022-12-26T12:27:11.290Z,82.30
2022-12-26T12:30:29.283Z,82.30
2022-12-26T12:33:19.129Z,82.30
2022-12-26T12:39:02.652Z,82.10
2022-12-26T12:41:57.577Z,82.20
2022-12-26T12:45:00.198Z,82.20
2022-12-26T12:47:38.770Z,82.30
2022-12-26T12:50:16.981Z,82.30
2022-12-26T12:52:55.865Z,82.30
2022-12-26T12:55:53.103Z,82.30
2022-12-26T12:58:29.177Z,82.30
2022-12-26T13:01:05.217Z,82.30
2022-12-26T13:03:40.464Z,82.30
2022-12-26T13:06:18.050Z,82.30
2022-12-26T13:08:53.273Z,82.20
2022-12-26T13:11:26.920Z,82.20
2022-12-26T13:14:00.298Z,82.30
2022-12-26T13:16:33.782Z,82.30
2022-12-26T13:19:08.030Z,82.30
2022-12-26T13:21:41.599Z,82.30
2022-12-26T13:24:25.775Z,82.30
2022-12-26T13:27:02.787Z,82.40
2022-12-26T13:29:40.135Z,82.30
2022-12-26T13:32:18.809Z,82.40
2022-12-26T13:34:48.656Z,82.30
2022-12-26T13:37:58.785Z,82.40
2022-12-26T13:40:32.073Z,82.40
2022-12-26T13:43:25.930Z,82.40
2022-12-26T13:45:58.197Z,82.30
2022-12-26T13:49:07.730Z,82.30
2022-12-26T13:51:56.760Z,82.20
2022-12-26T13:54:28.933Z,82.20
2022-12-26T13:57:32.695Z,82.20
2022-12-26T14:00:15.052Z,82.00
2022-12-26T14:03:21.732Z,82.00
2022-12-26T14:06:21.082Z,82.00
2022-12-26T14:09:06.702Z,82.00
2022-12-26T14:11:51.107Z,82.00
2022-12-26T14:14:31.631Z,82.00
2022-12-26T14:17:09.856Z,82.10
2022-12-26T14:19:50.721Z,82.20
2022-12-26T14:22:29.843Z,82.20
2022-12-26T14:25:10.466Z,82.30
2022-12-26T14:27:46.055Z,82.40
2022-12-26T14:30:35.075Z,82.60
2022-12-26T14:33:25.127Z,82.60
2022-12-26T14:36:10.327Z,82.70
2022-12-26T14:38:48.946Z,82.80
2022-12-26T14:41:33.515Z,82.90
2022-12-26T14:44:15.353Z,83.10
2022-12-26T14:47:02.215Z,83.10
2022-12-26T14:49:44.270Z,83.10
2022-12-26T14:52:44.586Z,83.00
2022-12-26T14:55:47.939Z,83.10
2022-12-26T14:58:42.010Z,83.10
2022-12-26T15:01:48.938Z,83.10
2022-12-26T15:04:43.497Z,83.10
2022-12-26T15:07:34.141Z,83.20
2022-12-26T15:10:34.893Z,83.10
2022-12-26T15:13:53.183Z,83.00
2022-12-26T15:16:40.228Z,83.10
2022-12-26T15:19:44.717Z,83.10
2022-12-26T15:22:50.456Z,83.00
2022-12-26T15:25:47.944Z,82.90
2022-12-26T15:29:02.997Z,82.90
2022-12-26T15:31:45.316Z,82.90
2022-12-26T15:34:46.921Z,82.90
2022-12-26T15:37:25.802Z,82.90
2022-12-26T15:40:08.195Z,83.00
2022-12-26T15:42:46.823Z,82.80
2022-12-26T15:45:33.795Z,82.80
2022-12-26T15:48:08.526Z,82.90
2022-12-26T15:50:50.670Z,83.00
2022-12-26T15:53:27.727Z,83.10
2022-12-26T15:56:19.000Z,83.20
2022-12-26T15:59:10.097Z,83.20
2022-12-26T16:01:41.028Z,83.30
2022-12-26T16:04:18.320Z,83.20
2022-12-26T16:07:10.262Z,83.40
2022-12-26T16:09:46.460Z,83.40
2022-12-26T16:12:26.012Z,83.40
2022-12-26T16:15:04.109Z,83.60
2022-12-26T16:17:34.151Z,83.60
2022-12-26T16:20:18.972Z,84.50
2022-12-26T16:22:47.418Z,83.90
2022-12-26T16:25:20.800Z,83.90
2022-12-26T16:27:53.585Z,83.90
2022-12-26T16:30:24.688Z,84.10
2022-12-26T16:32:54.777Z,84.10
2022-12-26T16:35:26.175Z,84.30
2022-12-26T16:37:58.124Z,84.30
2022-12-26T16:40:30.935Z,84.30
2022-12-26T16:43:07.889Z,84.30
2022-12-26T16:45:39.343Z,84.30
2022-12-26T16:48:10.214Z,84.40
2022-12-26T16:50:48.515Z,84.40
2022-12-26T16:53:19.274Z,84.40
2022-12-26T16:55:50.720Z,84.50
2022-12-26T16:58:26.434Z,84.50
2022-12-26T17:01:05.871Z,84.50
2022-12-26T17:03:42.433Z,84.50
2022-12-26T17:06:15.061Z,84.50
2022-12-26T17:08:47.403Z,84.60
2022-12-26T17:11:16.894Z,84.50
2022-12-26T17:13:53.984Z,84.40
2022-12-26T17:16:26.076Z,84.40
2022-12-26T17:18:56.158Z,84.30
2022-12-26T17:21:30.102Z,84.30
2022-12-26T17:24:52.305Z,84.40
2022-12-26T17:27:23.449Z,84.40
2022-12-26T17:29:57.513Z,84.40
2022-12-26T17:32:39.718Z,84.40
2022-12-26T17:35:15.879Z,84.30
2022-12-26T17:37:45.730Z,84.20
2022-12-26T17:40:25.588Z,84.20
2022-12-26T17:42:56.321Z,84.10
2022-12-26T17:45:28.477Z,84.10
2022-12-26T17:47:58.556Z,84.10
2022-12-26T17:50:33.833Z,84.20
2022-12-26T17:53:07.998Z,84.20
2022-12-26T17:55:37.081Z,84.30
2022-12-26T17:58:06.195Z,84.40
2022-12-26T18:00:36.802Z,84.50
2022-12-26T18:03:06.202Z,84.50
2022-12-26T18:05:36.573Z,84.50
2022-12-26T18:08:06.470Z,84.50
2022-12-26T18:10:37.244Z,84.60
2022-12-26T18:13:11.208Z,84.60
2022-12-26T18:15:41.877Z,84.70
2022-12-26T18:18:23.284Z,84.70
2022-12-26T18:20:52.347Z,84.80
2022-12-26T18:23:23.095Z,85.00
2022-12-26T18:25:54.592Z,85.10
2022-12-26T18:28:23.861Z,85.30
2022-12-26T18:30:55.177Z,85.50
2022-12-26T18:33:24.337Z,85.70
2022-12-26T18:35:53.426Z,85.80
2022-12-26T18:38:22.836Z,85.80
2022-12-26T18:40:54.069Z,86.00
2022-12-26T18:43:22.815Z,86.20
2022-12-26T18:45:53.253Z,86.30
2022-12-26T18:48:22.314Z,86.20
2022-12-26T18:50:51.313Z,86.30
2022-12-26T18:53:20.963Z,86.40
2022-12-26T18:55:51.005Z,86.60
2022-12-26T18:58:20.011Z,86.60
2022-12-26T19:00:49.049Z,86.70
2022-12-26T19:03:19.819Z,86.90
2022-12-26T19:05:49.069Z,87.00
2022-12-26T19:08:18.055Z,87.00
2022-12-26T19:10:47.500Z,87.00
2022-12-26T19:13:17.024Z,87.00
2022-12-26T19:15:47.865Z,87.10
2022-12-26T19:18:16.973Z,87.10
2022-12-26T19:20:47.344Z,87.00
2022-12-26T19:23:16.309Z,86.90
2022-12-26T19:25:45.388Z,86.80
2022-12-26T19:28:14.391Z,86.70
2022-12-26T19:30:43.484Z,86.60
2022-12-26T19:33:12.777Z,86.50
2022-12-26T19:35:42.042Z,86.50
2022-12-26T19:38:13.866Z,86.40
2022-12-26T19:40:42.871Z,86.40
2022-12-26T19:43:11.960Z,86.50
2022-12-26T19:45:41.020Z,86.40
2022-12-26T19:48:10.069Z,86.50
2022-12-26T19:50:39.123Z,86.50
2022-12-26T19:53:08.077Z,86.50
2022-12-26T19:55:38.811Z,86.50
2022-12-26T19:58:07.770Z,86.60
2022-12-26T20:00:36.840Z,86.50
2022-12-26T20:03:05.946Z,86.60
2022-12-26T20:05:38.786Z,86.70
2022-12-26T20:08:07.886Z,86.60
2022-12-26T20:10:38.904Z,87.50
2022-12-26T20:13:07.999Z,86.60
2022-12-26T20:15:37.025Z,86.60
2022-12-26T20:18:06.171Z,86.70
2022-12-26T20:20:35.281Z,86.70
2022-12-26T20:23:04.350Z,86.70
2022-12-26T20:25:33.433Z,86.70
2022-12-26T20:28:03.819Z,86.80
2022-12-26T20:30:32.873Z,86.80
2022-12-26T20:33:01.948Z,86.70
2022-12-26T20:35:30.974Z,86.70
2022-12-26T20:37:59.978Z,86.70
2022-12-26T20:40:29.109Z,86.70
2022-12-26T20:42:58.117Z,86.70
2022-12-26T20:45:28.490Z,86.60
2022-12-26T20:47:57.457Z,86.60
2022-12-26T20:50:26.457Z,86.60
2022-12-26T20:52:55.677Z,86.60
2022-12-26T20:55:24.722Z,86.60
2022-12-26T20:57:53.798Z,86.60
2022-12-26T21:00:23.334Z,86.60
2022-12-26T21:02:54.090Z,86.70
2022-12-26T21:05:23.180Z,86.80
2022-12-26T21:07:52.205Z,86.70
2022-12-26T21:10:22.198Z,86.80
2022-12-26T21:12:51.254Z,86.70
2022-12-26T21:15:20.465Z,86.90
2022-12-26T21:17:49.440Z,86.70
2022-12-26T21:20:20.006Z,86.80
2022-12-26T21:22:49.079Z,86.90
2022-12-26T21:25:18.329Z,86.90
2022-12-26T21:27:49.694Z,86.80
2022-12-26T21:30:19.120Z,86.70
2022-12-26T21:32:48.116Z,86.70
2022-12-26T21:35:17.208Z,86.70
2022-12-26T21:37:51.686Z,86.60
2022-12-26T21:40:27.858Z,86.60
2022-12-26T21:42:57.191Z,86.70
2022-12-26T21:45:29.435Z,86.60
2022-12-26T21:47:58.448Z,86.50
2022-12-26T21:50:27.479Z,86.60
2022-12-26T21:52:58.428Z,86.50
2022-12-26T21:55:27.419Z,86.50
2022-12-26T21:57:57.238Z,86.60
2022-12-26T22:00:26.858Z,86.50
2022-12-26T22:03:13.717Z,86.50
2022-12-26T22:05:43.518Z,86.40
2022-12-26T22:08:13.917Z,86.40
2022-12-26T22:11:02.515Z,86.40
2022-12-26T22:13:38.352Z,86.30
2022-12-26T22:16:09.689Z,86.30
2022-12-26T22:18:40.732Z,86.20
2022-12-26T22:21:12.029Z,86.20
2022-12-26T22:23:42.653Z,86.40
2022-12-26T22:26:12.754Z,86.40
2022-12-26T22:28:43.068Z,86.30
2022-12-26T22:31:20.385Z,87.10
2022-12-26T22:33:54.315Z,86.40
2022-12-26T22:36:23.535Z,86.50
2022-12-26T22:38:54.291Z,86.60
2022-12-26T22:41:23.404Z,86.60
2022-12-26T22:43:52.369Z,86.60
2022-12-26T22:46:21.406Z,86.70
2022-12-26T22:48:50.450Z,86.70
2022-12-26T22:51:21.631Z,86.70
2022-12-26T22:53:50.492Z,86.80
2022-12-26T22:56:20.808Z,86.80
2022-12-26T22:58:53.037Z,86.70
2022-12-26T23:01:23.353Z,86.80
2022-12-26T23:03:52.579Z,86.70
2022-12-26T23:06:23.773Z,86.80
2022-12-26T23:08:54.490Z,86.80
2022-12-26T23:11:34.328Z,86.80
2022-12-26T23:14:05.214Z,86.70
2022-12-26T23:16:38.051Z,86.70
2022-12-26T23:19:30.757Z,86.80
2022-12-26T23:22:01.748Z,86.80
2022-12-26T23:24:32.603Z,86.90
2022-12-26T23:27:19.161Z,86.90
2022-12-26T23:30:05.614Z,87.00
2022-12-26T23:32:35.305Z,87.00
2022-12-26T23:35:04.837Z,86.90
2022-12-26T23:37:33.955Z,86.90
2022-12-26T23:40:03.009Z,86.90
2022-12-26T23:42:33.751Z,86.90
2022-12-26T23:45:02.738Z,86.90
2022-12-26T23:47:32.530Z,86.90
2022-12-26T23:50:01.517Z,87.00
2022-12-26T23:52:30.808Z,86.90
2022-12-26T23:54:59.884Z,87.00
2022-12-26T23:57:29.145Z,87.90
2022-12-26T23:59:59.507Z,87.00
